sensor_id;sensor_type;location;lat;lon;timestamp;temperature;humidity
46139;DHT22;32398;49.112;8.598;2023-05-23T00:01:57;21.90;77.20
46139;DHT22;32398;49.112;8.598;2023-05-23T00:04:25;21.90;77.40
46139;DHT22;32398;49.112;8.598;2023-05-23T00:06:52;21.80;77.50
46139;DHT22;32398;49.112;8.598;2023-05-23T00:09:18;21.80;77.50
46139;DHT22;32398;49.112;8.598;2023-05-23T00:11:45;21.80;77.50
46139;DHT22;32398;49.112;8.598;2023-05-23T00:14:12;21.80;77.60
46139;DHT22;32398;49.112;8.598;2023-05-23T00:16:39;21.80;77.80
46139;DHT22;32398;49.112;8.598;2023-05-23T00:19:07;21.70;77.70
46139;DHT22;32398;49.112;8.598;2023-05-23T00:21:35;21.70;77.80
46139;DHT22;32398;49.112;8.598;2023-05-23T00:24:02;21.70;77.90
46139;DHT22;32398;49.112;8.598;2023-05-23T00:26:29;21.70;78.00
46139;DHT22;32398;49.112;8.598;2023-05-23T00:28:56;21.60;78.00
46139;DHT22;32398;49.112;8.598;2023-05-23T00:31:23;21.60;78.10
46139;DHT22;32398;49.112;8.598;2023-05-23T00:33:50;21.60;78.10
46139;DHT22;32398;49.112;8.598;2023-05-23T00:36:16;21.60;78.20
46139;DHT22;32398;49.112;8.598;2023-05-23T00:38:44;21.60;78.30
46139;DHT22;32398;49.112;8.598;2023-05-23T00:41:11;21.50;78.20
46139;DHT22;32398;49.112;8.598;2023-05-23T00:43:38;21.50;78.30
46139;DHT22;32398;49.112;8.598;2023-05-23T00:46:04;21.50;79.10
46139;DHT22;32398;49.112;8.598;2023-05-23T00:48:31;21.50;78.40
46139;DHT22;32398;49.112;8.598;2023-05-23T00:50:57;21.40;78.40
46139;DHT22;32398;49.112;8.598;2023-05-23T00:53:24;21.50;78.50
46139;DHT22;32398;49.112;8.598;2023-05-23T00:55:53;21.40;78.50
46139;DHT22;32398;49.112;8.598;2023-05-23T00:58:19;21.40;79.40
46139;DHT22;32398;49.112;8.598;2023-05-23T01:00:46;21.40;78.70
46139;DHT22;32398;49.112;8.598;2023-05-23T01:03:14;21.30;78.70
46139;DHT22;32398;49.112;8.598;2023-05-23T01:05:42;21.30;78.80
46139;DHT22;32398;49.112;8.598;2023-05-23T01:08:09;21.30;78.90
46139;DHT22;32398;49.112;8.598;2023-05-23T01:10:35;21.30;78.90
46139;DHT22;32398;49.112;8.598;2023-05-23T01:13:08;21.30;79.00
46139;DHT22;32398;49.112;8.598;2023-05-23T01:15:37;21.30;79.10
46139;DHT22;32398;49.112;8.598;2023-05-23T01:18:06;21.20;79.10
46139;DHT22;32398;49.112;8.598;2023-05-23T01:20:34;21.20;79.10
46139;DHT22;32398;49.112;8.598;2023-05-23T01:23:09;21.20;79.20
46139;DHT22;32398;49.112;8.598;2023-05-23T01:25:47;21.20;79.30
46139;DHT22;32398;49.112;8.598;2023-05-23T01:28:27;21.20;79.30
46139;DHT22;32398;49.112;8.598;2023-05-23T01:30:56;21.10;79.40
46139;DHT22;32398;49.112;8.598;2023-05-23T01:33:23;21.10;79.40
46139;DHT22;32398;49.112;8.598;2023-05-23T01:35:50;21.10;79.50
46139;DHT22;32398;49.112;8.598;2023-05-23T01:38:17;21.10;79.50
46139;DHT22;32398;49.112;8.598;2023-05-23T01:40:43;21.00;79.50
46139;DHT22;32398;49.112;8.598;2023-05-23T01:43:10;21.00;79.50
46139;DHT22;32398;49.112;8.598;2023-05-23T01:45:38;21.00;79.60
46139;DHT22;32398;49.112;8.598;2023-05-23T01:48:05;21.00;79.70
46139;DHT22;32398;49.112;8.598;2023-05-23T01:50:31;21.00;79.70
46139;DHT22;32398;49.112;8.598;2023-05-23T01:52:58;21.00;79.70
46139;DHT22;32398;49.112;8.598;2023-05-23T01:55:25;21.00;79.80
46139;DHT22;32398;49.112;8.598;2023-05-23T01:57:52;21.00;79.80
46139;DHT22;32398;49.112;8.598;2023-05-23T02:00:20;21.00;79.90
46139;DHT22;32398;49.112;8.598;2023-05-23T02:02:48;20.90;79.80
46139;DHT22;32398;49.112;8.598;2023-05-23T02:05:15;20.90;79.90
46139;DHT22;32398;49.112;8.598;2023-05-23T02:07:41;20.90;79.90
46139;DHT22;32398;49.112;8.598;2023-05-23T02:10:08;20.90;80.00
46139;DHT22;32398;49.112;8.598;2023-05-23T02:12:35;20.90;80.00
46139;DHT22;32398;49.112;8.598;2023-05-23T02:15:01;20.90;80.10
46139;DHT22;32398;49.112;8.598;2023-05-23T02:17:28;20.80;80.10
46139;DHT22;32398;49.112;8.598;2023-05-23T02:19:56;20.80;80.10
46139;DHT22;32398;49.112;8.598;2023-05-23T02:22:23;20.80;80.10
46139;DHT22;32398;49.112;8.598;2023-05-23T02:24:49;20.80;80.20
46139;DHT22;32398;49.112;8.598;2023-05-23T02:27:16;20.80;80.20
46139;DHT22;32398;49.112;8.598;2023-05-23T02:29:43;20.80;80.30
46139;DHT22;32398;49.112;8.598;2023-05-23T02:32:09;20.70;80.20
46139;DHT22;32398;49.112;8.598;2023-05-23T02:34:36;20.70;80.30
46139;DHT22;32398;49.112;8.598;2023-05-23T02:37:04;20.70;80.30
46139;DHT22;32398;49.112;8.598;2023-05-23T02:39:30;20.60;80.30
46139;DHT22;32398;49.112;8.598;2023-05-23T02:41:57;20.70;80.50
46139;DHT22;32398;49.112;8.598;2023-05-23T02:44:23;20.60;80.50
46139;DHT22;32398;49.112;8.598;2023-05-23T02:46:50;20.60;80.50
46139;DHT22;32398;49.112;8.598;2023-05-23T02:49:16;20.60;80.60
46139;DHT22;32398;49.112;8.598;2023-05-23T02:51:43;20.60;80.60
46139;DHT22;32398;49.112;8.598;2023-05-23T02:54:11;20.60;80.60
46139;DHT22;32398;49.112;8.598;2023-05-23T02:56:37;20.50;80.60
46139;DHT22;32398;49.112;8.598;2023-05-23T02:59:04;20.50;80.70
46139;DHT22;32398;49.112;8.598;2023-05-23T03:01:30;20.50;80.70
46139;DHT22;32398;49.112;8.598;2023-05-23T03:03:57;20.50;80.80
46139;DHT22;32398;49.112;8.598;2023-05-23T03:06:23;20.50;80.90
46139;DHT22;32398;49.112;8.598;2023-05-23T03:08:51;20.40;80.80
46139;DHT22;32398;49.112;8.598;2023-05-23T03:11:19;20.40;80.80
46139;DHT22;32398;49.112;8.598;2023-05-23T03:13:46;20.40;80.90
46139;DHT22;32398;49.112;8.598;2023-05-23T03:16:13;20.40;81.00
46139;DHT22;32398;49.112;8.598;2023-05-23T03:18:40;20.40;81.00
46139;DHT22;32398;49.112;8.598;2023-05-23T03:21:06;20.40;81.10
46139;DHT22;32398;49.112;8.598;2023-05-23T03:23:33;20.40;81.10
46139;DHT22;32398;49.112;8.598;2023-05-23T03:26:00;20.40;81.10
46139;DHT22;32398;49.112;8.598;2023-05-23T03:28:29;20.40;81.20
46139;DHT22;32398;49.112;8.598;2023-05-23T03:30:56;20.40;81.20
46139;DHT22;32398;49.112;8.598;2023-05-23T03:33:22;20.30;81.20
46139;DHT22;32398;49.112;8.598;2023-05-23T03:35:49;20.30;81.20
46139;DHT22;32398;49.112;8.598;2023-05-23T03:38:15;20.30;81.30
46139;DHT22;32398;49.112;8.598;2023-05-23T03:40:42;20.30;81.40
46139;DHT22;32398;49.112;8.598;2023-05-23T03:43:08;20.30;81.30
46139;DHT22;32398;49.112;8.598;2023-05-23T03:45:36;20.20;81.30
46139;DHT22;32398;49.112;8.598;2023-05-23T03:48:03;20.20;81.40
46139;DHT22;32398;49.112;8.598;2023-05-23T03:50:29;20.20;81.40
46139;DHT22;32398;49.112;8.598;2023-05-23T03:52:56;20.20;81.60
46139;DHT22;32398;49.112;8.598;2023-05-23T03:55:23;20.20;81.50
46139;DHT22;32398;49.112;8.598;2023-05-23T03:57:49;20.10;81.50
46139;DHT22;32398;49.112;8.598;2023-05-23T04:00:16;20.20;81.60
46139;DHT22;32398;49.112;8.598;2023-05-23T04:02:44;20.10;81.60
46139;DHT22;32398;49.112;8.598;2023-05-23T04:05:11;20.10;81.60
46139;DHT22;32398;49.112;8.598;2023-05-23T04:07:38;20.10;81.70
46139;DHT22;32398;49.112;8.598;2023-05-23T04:10:06;20.10;81.70
46139;DHT22;32398;49.112;8.598;2023-05-23T04:12:33;20.00;81.70
46139;DHT22;32398;49.112;8.598;2023-05-23T04:14:59;20.00;81.70
46139;DHT22;32398;49.112;8.598;2023-05-23T04:17:26;20.00;81.70
46139;DHT22;32398;49.112;8.598;2023-05-23T04:19:56;20.00;81.80
46139;DHT22;32398;49.112;8.598;2023-05-23T04:22:22;20.00;81.80
46139;DHT22;32398;49.112;8.598;2023-05-23T04:24:49;20.00;82.20
46139;DHT22;32398;49.112;8.598;2023-05-23T04:27:15;20.00;81.90
46139;DHT22;32398;49.112;8.598;2023-05-23T04:29:42;20.00;81.90
46139;DHT22;32398;49.112;8.598;2023-05-23T04:32:11;20.00;81.90
46139;DHT22;32398;49.112;8.598;2023-05-23T04:34:37;20.00;81.90
46139;DHT22;32398;49.112;8.598;2023-05-23T04:37:06;19.90;81.90
46139;DHT22;32398;49.112;8.598;2023-05-23T04:39:33;19.90;81.90
46139;DHT22;32398;49.112;8.598;2023-05-23T04:42:00;19.90;81.90
46139;DHT22;32398;49.112;8.598;2023-05-23T04:44:26;19.90;81.90
46139;DHT22;32398;49.112;8.598;2023-05-23T04:46:54;19.90;81.90
46139;DHT22;32398;49.112;8.598;2023-05-23T04:49:21;19.90;81.90
46139;DHT22;32398;49.112;8.598;2023-05-23T04:51:48;19.90;81.90
46139;DHT22;32398;49.112;8.598;2023-05-23T04:54:16;19.90;82.00
46139;DHT22;32398;49.112;8.598;2023-05-23T04:56:43;19.80;81.80
46139;DHT22;32398;49.112;8.598;2023-05-23T04:59:09;19.80;82.50
46139;DHT22;32398;49.112;8.598;2023-05-23T05:01:37;19.80;81.80
46139;DHT22;32398;49.112;8.598;2023-05-23T05:04:04;19.80;81.80
46139;DHT22;32398;49.112;8.598;2023-05-23T05:06:31;19.80;81.80
46139;DHT22;32398;49.112;8.598;2023-05-23T05:08:58;19.80;81.80
46139;DHT22;32398;49.112;8.598;2023-05-23T05:11:26;19.70;81.70
46139;DHT22;32398;49.112;8.598;2023-05-23T05:13:52;19.70;79.50
46139;DHT22;32398;49.112;8.598;2023-05-23T05:16:19;19.50;80.40
46139;DHT22;32398;49.112;8.598;2023-05-23T05:18:46;19.50;81.00
46139;DHT22;32398;49.112;8.598;2023-05-23T05:21:12;19.40;81.30
46139;DHT22;32398;49.112;8.598;2023-05-23T05:23:39;19.40;81.50
46139;DHT22;32398;49.112;8.598;2023-05-23T05:26:06;19.40;81.60
46139;DHT22;32398;49.112;8.598;2023-05-23T05:28:34;19.40;81.70
46139;DHT22;32398;49.112;8.598;2023-05-23T05:31:00;19.40;81.70
46139;DHT22;32398;49.112;8.598;2023-05-23T05:33:29;19.40;81.60
46139;DHT22;32398;49.112;8.598;2023-05-23T05:36:00;19.40;81.60
46139;DHT22;32398;49.112;8.598;2023-05-23T05:38:27;19.40;81.60
46139;DHT22;32398;49.112;8.598;2023-05-23T05:40:53;19.40;81.60
46139;DHT22;32398;49.112;8.598;2023-05-23T05:43:20;19.40;81.50
46139;DHT22;32398;49.112;8.598;2023-05-23T05:45:48;19.40;81.50
46139;DHT22;32398;49.112;8.598;2023-05-23T05:48:14;19.40;81.50
46139;DHT22;32398;49.112;8.598;2023-05-23T05:50:41;19.40;81.40
46139;DHT22;32398;49.112;8.598;2023-05-23T05:53:09;19.40;81.20
46139;DHT22;32398;49.112;8.598;2023-05-23T05:55:36;19.40;81.10
46139;DHT22;32398;49.112;8.598;2023-05-23T05:58:03;19.30;81.00
46139;DHT22;32398;49.112;8.598;2023-05-23T06:00:30;19.30;80.90
46139;DHT22;32398;49.112;8.598;2023-05-23T06:02:57;19.30;81.00
46139;DHT22;32398;49.112;8.598;2023-05-23T06:05:24;19.30;80.90
46139;DHT22;32398;49.112;8.598;2023-05-23T06:07:51;19.30;80.90
46139;DHT22;32398;49.112;8.598;2023-05-23T06:10:17;19.30;81.00
46139;DHT22;32398;49.112;8.598;2023-05-23T06:12:44;19.30;80.80
46139;DHT22;32398;49.112;8.598;2023-05-23T06:15:11;19.20;80.60
46139;DHT22;32398;49.112;8.598;2023-05-23T06:17:38;19.30;80.60
46139;DHT22;32398;49.112;8.598;2023-05-23T06:20:07;19.20;80.50
46139;DHT22;32398;49.112;8.598;2023-05-23T06:22:33;19.30;80.50
46139;DHT22;32398;49.112;8.598;2023-05-23T06:25:00;19.20;80.40
46139;DHT22;32398;49.112;8.598;2023-05-23T06:27:26;19.20;80.40
46139;DHT22;32398;49.112;8.598;2023-05-23T06:29:53;19.20;80.20
46139;DHT22;32398;49.112;8.598;2023-05-23T06:32:19;19.20;80.00
46139;DHT22;32398;49.112;8.598;2023-05-23T06:34:46;19.20;80.00
46139;DHT22;32398;49.112;8.598;2023-05-23T06:37:14;19.20;79.90
46139;DHT22;32398;49.112;8.598;2023-05-23T06:39:42;19.20;79.90
46139;DHT22;32398;49.112;8.598;2023-05-23T06:42:08;19.20;79.70
46139;DHT22;32398;49.112;8.598;2023-05-23T06:44:35;19.20;79.70
46139;DHT22;32398;49.112;8.598;2023-05-23T06:47:01;19.20;79.60
46139;DHT22;32398;49.112;8.598;2023-05-23T06:49:28;19.20;79.50
46139;DHT22;32398;49.112;8.598;2023-05-23T06:51:54;19.10;79.40
46139;DHT22;32398;49.112;8.598;2023-05-23T06:54:22;19.10;79.30
46139;DHT22;32398;49.112;8.598;2023-05-23T06:56:49;19.20;79.50
46139;DHT22;32398;49.112;8.598;2023-05-23T06:59:15;19.10;79.10
46139;DHT22;32398;49.112;8.598;2023-05-23T07:01:42;19.10;79.00
46139;DHT22;32398;49.112;8.598;2023-05-23T07:04:08;19.10;79.00
46139;DHT22;32398;49.112;8.598;2023-05-23T07:06:36;19.10;78.80
46139;DHT22;32398;49.112;8.598;2023-05-23T07:09:04;19.10;78.90
46139;DHT22;32398;49.112;8.598;2023-05-23T07:11:32;19.10;78.80
46139;DHT22;32398;49.112;8.598;2023-05-23T07:13:59;19.10;78.80
46139;DHT22;32398;49.112;8.598;2023-05-23T07:16:26;19.10;78.70
46139;DHT22;32398;49.112;8.598;2023-05-23T07:18:52;19.10;78.60
46139;DHT22;32398;49.112;8.598;2023-05-23T07:21:19;19.10;78.60
46139;DHT22;32398;49.112;8.598;2023-05-23T07:23:45;19.10;78.50
46139;DHT22;32398;49.112;8.598;2023-05-23T07:26:12;19.10;78.40
46139;DHT22;32398;49.112;8.598;2023-05-23T07:28:40;19.10;78.40
46139;DHT22;32398;49.112;8.598;2023-05-23T07:31:06;19.10;78.40
46139;DHT22;32398;49.112;8.598;2023-05-23T07:33:33;19.10;78.30
46139;DHT22;32398;49.112;8.598;2023-05-23T07:36:00;19.10;78.20
46139;DHT22;32398;49.112;8.598;2023-05-23T07:38:26;19.10;78.10
46139;DHT22;32398;49.112;8.598;2023-05-23T07:40:53;19.10;78.90
46139;DHT22;32398;49.112;8.598;2023-05-23T07:43:19;19.10;78.20
46139;DHT22;32398;49.112;8.598;2023-05-23T07:45:48;19.10;78.20
46139;DHT22;32398;49.112;8.598;2023-05-23T07:48:14;19.10;78.20
46139;DHT22;32398;49.112;8.598;2023-05-23T07:50:41;19.10;78.20
46139;DHT22;32398;49.112;8.598;2023-05-23T07:53:07;19.10;78.20
46139;DHT22;32398;49.112;8.598;2023-05-23T07:55:34;19.10;78.10
46139;DHT22;32398;49.112;8.598;2023-05-23T07:58:00;19.10;78.10
46139;DHT22;32398;49.112;8.598;2023-05-23T08:00:27;19.10;78.00
46139;DHT22;32398;49.112;8.598;2023-05-23T08:02:55;19.10;78.00
46139;DHT22;32398;49.112;8.598;2023-05-23T08:05:21;19.00;77.80
46139;DHT22;32398;49.112;8.598;2023-05-23T08:07:48;19.10;77.70
46139;DHT22;32398;49.112;8.598;2023-05-23T08:10:15;19.10;77.60
46139;DHT22;32398;49.112;8.598;2023-05-23T08:12:41;19.00;77.40
46139;DHT22;32398;49.112;8.598;2023-05-23T08:15:08;19.00;77.40
46139;DHT22;32398;49.112;8.598;2023-05-23T08:17:35;19.10;77.50
46139;DHT22;32398;49.112;8.598;2023-05-23T08:20:04;19.10;77.40
46139;DHT22;32398;49.112;8.598;2023-05-23T08:22:31;19.00;77.30
46139;DHT22;32398;49.112;8.598;2023-05-23T08:24:57;19.00;77.20
46139;DHT22;32398;49.112;8.598;2023-05-23T08:27:24;19.00;77.10
46139;DHT22;32398;49.112;8.598;2023-05-23T08:29:50;19.10;77.20
46139;DHT22;32398;49.112;8.598;2023-05-23T08:32:17;19.10;77.20
46139;DHT22;32398;49.112;8.598;2023-05-23T08:34:44;19.10;77.10
46139;DHT22;32398;49.112;8.598;2023-05-23T08:37:11;19.10;77.10
46139;DHT22;32398;49.112;8.598;2023-05-23T08:39:38;19.10;77.00
46139;DHT22;32398;49.112;8.598;2023-05-23T08:42:05;19.10;76.90
46139;DHT22;32398;49.112;8.598;2023-05-23T08:44:32;19.10;76.80
46139;DHT22;32398;49.112;8.598;2023-05-23T08:47:00;19.20;76.70
46139;DHT22;32398;49.112;8.598;2023-05-23T08:49:29;19.20;76.70
46139;DHT22;32398;49.112;8.598;2023-05-23T08:51:56;19.20;76.50
46139;DHT22;32398;49.112;8.598;2023-05-23T08:54:27;19.20;76.50
46139;DHT22;32398;49.112;8.598;2023-05-23T08:56:54;19.20;76.40
46139;DHT22;32398;49.112;8.598;2023-05-23T08:59:21;19.20;76.30
46139;DHT22;32398;49.112;8.598;2023-05-23T09:01:47;19.20;76.30
46139;DHT22;32398;49.112;8.598;2023-05-23T09:04:15;19.20;76.50
46139;DHT22;32398;49.112;8.598;2023-05-23T09:06:42;19.20;76.40
46139;DHT22;32398;49.112;8.598;2023-05-23T09:09:08;19.20;76.30
46139;DHT22;32398;49.112;8.598;2023-05-23T09:11:36;19.20;76.40
46139;DHT22;32398;49.112;8.598;2023-05-23T09:14:03;19.20;76.30
46139;DHT22;32398;49.112;8.598;2023-05-23T09:16:32;19.20;76.20
46139;DHT22;32398;49.112;8.598;2023-05-23T09:18:59;19.20;76.20
46139;DHT22;32398;49.112;8.598;2023-05-23T09:21:34;19.30;76.10
46139;DHT22;32398;49.112;8.598;2023-05-23T09:24:01;19.30;76.10
46139;DHT22;32398;49.112;8.598;2023-05-23T09:26:28;19.30;76.10
46139;DHT22;32398;49.112;8.598;2023-05-23T09:28:57;19.30;75.90
46139;DHT22;32398;49.112;8.598;2023-05-23T09:31:24;19.30;75.70
46139;DHT22;32398;49.112;8.598;2023-05-23T09:33:51;19.40;75.50
46139;DHT22;32398;49.112;8.598;2023-05-23T09:36:18;19.40;75.30
46139;DHT22;32398;49.112;8.598;2023-05-23T09:38:45;19.40;75.30
46139;DHT22;32398;49.112;8.598;2023-05-23T09:41:12;19.40;75.00
46139;DHT22;32398;49.112;8.598;2023-05-23T09:43:39;19.40;74.90
46139;DHT22;32398;49.112;8.598;2023-05-23T09:46:08;19.40;74.60
46139;DHT22;32398;49.112;8.598;2023-05-23T09:48:35;19.40;74.70
46139;DHT22;32398;49.112;8.598;2023-05-23T09:51:05;19.50;74.40
46139;DHT22;32398;49.112;8.598;2023-05-23T09:53:31;19.50;74.40
46139;DHT22;32398;49.112;8.598;2023-05-23T09:55:58;19.50;74.40
46139;DHT22;32398;49.112;8.598;2023-05-23T09:58:25;19.50;74.40
46139;DHT22;32398;49.112;8.598;2023-05-23T10:00:54;19.60;74.30
46139;DHT22;32398;49.112;8.598;2023-05-23T10:03:23;19.60;74.40
46139;DHT22;32398;49.112;8.598;2023-05-23T10:05:52;19.60;74.00
46139;DHT22;32398;49.112;8.598;2023-05-23T10:08:22;19.60;73.70
46139;DHT22;32398;49.112;8.598;2023-05-23T10:11:08;19.60;74.00
46139;DHT22;32398;49.112;8.598;2023-05-23T10:13:49;19.60;74.00
46139;DHT22;32398;49.112;8.598;2023-05-23T10:16:18;19.70;73.50
46139;DHT22;32398;49.112;8.598;2023-05-23T10:18:47;19.70;73.50
46139;DHT22;32398;49.112;8.598;2023-05-23T10:21:17;19.70;73.40
46139;DHT22;32398;49.112;8.598;2023-05-23T10:23:45;19.80;73.40
46139;DHT22;32398;49.112;8.598;2023-05-23T10:26:12;19.80;73.40
46139;DHT22;32398;49.112;8.598;2023-05-23T10:28:39;19.80;73.20
46139;DHT22;32398;49.112;8.598;2023-05-23T10:31:05;19.90;72.50
46139;DHT22;32398;49.112;8.598;2023-05-23T10:33:33;19.90;72.90
46139;DHT22;32398;49.112;8.598;2023-05-23T10:36:03;19.90;72.80
46139;DHT22;32398;49.112;8.598;2023-05-23T10:38:35;20.00;72.40
46139;DHT22;32398;49.112;8.598;2023-05-23T10:41:05;20.00;72.20
46139;DHT22;32398;49.112;8.598;2023-05-23T10:43:35;20.00;72.30
46139;DHT22;32398;49.112;8.598;2023-05-23T10:46:07;20.10;72.20
46139;DHT22;32398;49.112;8.598;2023-05-23T10:48:33;20.10;72.20
46139;DHT22;32398;49.112;8.598;2023-05-23T10:51:03;20.10;72.00
46139;DHT22;32398;49.112;8.598;2023-05-23T10:53:30;20.10;71.80
46139;DHT22;32398;49.112;8.598;2023-05-23T10:55:57;20.10;72.70
46139;DHT22;32398;49.112;8.598;2023-05-23T10:58:23;20.10;72.10
46139;DHT22;32398;49.112;8.598;2023-05-23T11:00:51;20.10;72.00
46139;DHT22;32398;49.112;8.598;2023-05-23T11:03:18;20.10;72.00
46139;DHT22;32398;49.112;8.598;2023-05-23T11:05:55;20.10;71.90
46139;DHT22;32398;49.112;8.598;2023-05-23T11:08:24;20.10;72.00
46139;DHT22;32398;49.112;8.598;2023-05-23T11:10:51;20.20;72.20
46139;DHT22;32398;49.112;8.598;2023-05-23T11:13:17;20.20;72.00
46139;DHT22;32398;49.112;8.598;2023-05-23T11:15:44;20.20;71.40
46139;DHT22;32398;49.112;8.598;2023-05-23T11:18:18;20.20;71.40
46139;DHT22;32398;49.112;8.598;2023-05-23T11:20:45;20.20;71.50
46139;DHT22;32398;49.112;8.598;2023-05-23T11:23:12;20.30;71.70
46139;DHT22;32398;49.112;8.598;2023-05-23T11:25:41;20.30;71.70
46139;DHT22;32398;49.112;8.598;2023-05-23T11:28:08;20.30;71.30
46139;DHT22;32398;49.112;8.598;2023-05-23T11:30:35;20.30;71.70
46139;DHT22;32398;49.112;8.598;2023-05-23T11:33:05;20.40;70.70
46139;DHT22;32398;49.112;8.598;2023-05-23T11:35:32;20.50;70.70
46139;DHT22;32398;49.112;8.598;2023-05-23T11:37:59;20.60;70.00
46139;DHT22;32398;49.112;8.598;2023-05-23T11:40:28;20.60;70.10
46139;DHT22;32398;49.112;8.598;2023-05-23T11:42:56;20.60;70.40
46139;DHT22;32398;49.112;8.598;2023-05-23T11:45:22;20.70;70.50
46139;DHT22;32398;49.112;8.598;2023-05-23T11:47:49;20.70;70.50
46139;DHT22;32398;49.112;8.598;2023-05-23T11:50:16;20.60;70.50
46139;DHT22;32398;49.112;8.598;2023-05-23T11:52:44;20.70;70.40
46139;DHT22;32398;49.112;8.598;2023-05-23T11:55:15;20.60;70.50
46139;DHT22;32398;49.112;8.598;2023-05-23T11:57:42;20.70;70.50
46139;DHT22;32398;49.112;8.598;2023-05-23T12:00:11;20.60;70.70
46139;DHT22;32398;49.112;8.598;2023-05-23T12:02:38;20.70;70.80
46139;DHT22;32398;49.112;8.598;2023-05-23T12:05:08;20.60;70.70
46139;DHT22;32398;49.112;8.598;2023-05-23T12:07:35;20.60;70.50
46139;DHT22;32398;49.112;8.598;2023-05-23T12:10:02;20.60;70.30
46139;DHT22;32398;49.112;8.598;2023-05-23T12:12:30;20.60;70.00
46139;DHT22;32398;49.112;8.598;2023-05-23T12:14:56;20.70;70.60
46139;DHT22;32398;49.112;8.598;2023-05-23T12:17:25;20.60;71.00
46139;DHT22;32398;49.112;8.598;2023-05-23T12:19:51;20.60;70.80
46139;DHT22;32398;49.112;8.598;2023-05-23T12:22:21;20.60;71.20
46139;DHT22;32398;49.112;8.598;2023-05-23T12:24:49;20.60;70.80
46139;DHT22;32398;49.112;8.598;2023-05-23T12:27:18;20.60;71.10
46139;DHT22;32398;49.112;8.598;2023-05-23T12:29:49;20.60;70.70
46139;DHT22;32398;49.112;8.598;2023-05-23T12:32:15;20.60;70.80
46139;DHT22;32398;49.112;8.598;2023-05-23T12:34:43;20.60;71.10
46139;DHT22;32398;49.112;8.598;2023-05-23T12:37:11;20.70;71.00
46139;DHT22;32398;49.112;8.598;2023-05-23T12:39:38;20.70;71.20
46139;DHT22;32398;49.112;8.598;2023-05-23T12:42:08;20.70;71.30
46139;DHT22;32398;49.112;8.598;2023-05-23T12:44:35;20.70;71.20
46139;DHT22;32398;49.112;8.598;2023-05-23T12:47:02;20.80;70.80
46139;DHT22;32398;49.112;8.598;2023-05-23T12:49:28;20.80;70.50
46139;DHT22;32398;49.112;8.598;2023-05-23T12:51:56;20.80;70.60
46139;DHT22;32398;49.112;8.598;2023-05-23T12:54:23;20.80;70.50
46139;DHT22;32398;49.112;8.598;2023-05-23T12:56:49;20.90;70.60
46139;DHT22;32398;49.112;8.598;2023-05-23T12:59:16;20.90;70.60
46139;DHT22;32398;49.112;8.598;2023-05-23T13:01:42;20.90;70.40
46139;DHT22;32398;49.112;8.598;2023-05-23T13:04:09;21.00;70.20
46139;DHT22;32398;49.112;8.598;2023-05-23T13:06:35;21.00;70.20
46139;DHT22;32398;49.112;8.598;2023-05-23T13:09:03;21.00;70.10
46139;DHT22;32398;49.112;8.598;2023-05-23T13:11:30;21.00;69.60
46139;DHT22;32398;49.112;8.598;2023-05-23T13:13:56;21.00;68.80
46139;DHT22;32398;49.112;8.598;2023-05-23T13:16:23;21.00;68.90
46139;DHT22;32398;49.112;8.598;2023-05-23T13:18:49;21.00;68.80
46139;DHT22;32398;49.112;8.598;2023-05-23T13:21:16;21.10;68.80
46139;DHT22;32398;49.112;8.598;2023-05-23T13:23:42;21.10;68.60
46139;DHT22;32398;49.112;8.598;2023-05-23T13:26:10;21.10;68.40
46139;DHT22;32398;49.112;8.598;2023-05-23T13:28:38;21.10;68.60
46139;DHT22;32398;49.112;8.598;2023-05-23T13:31:05;21.20;68.50
46139;DHT22;32398;49.112;8.598;2023-05-23T13:33:31;21.20;68.30
46139;DHT22;32398;49.112;8.598;2023-05-23T13:35:58;21.20;68.10
46139;DHT22;32398;49.112;8.598;2023-05-23T13:38:24;21.20;67.70
46139;DHT22;32398;49.112;8.598;2023-05-23T13:40:52;21.30;67.90
46139;DHT22;32398;49.112;8.598;2023-05-23T13:43:20;21.30;67.90
46139;DHT22;32398;49.112;8.598;2023-05-23T13:45:46;21.30;68.30
46139;DHT22;32398;49.112;8.598;2023-05-23T13:48:13;21.30;68.50
46139;DHT22;32398;49.112;8.598;2023-05-23T13:50:41;21.30;68.50
46139;DHT22;32398;49.112;8.598;2023-05-23T13:53:08;21.30;68.20
46139;DHT22;32398;49.112;8.598;2023-05-23T13:55:39;21.30;67.60
46139;DHT22;32398;49.112;8.598;2023-05-23T13:58:06;21.30;67.90
46139;DHT22;32398;49.112;8.598;2023-05-23T14:00:33;21.30;67.70
46139;DHT22;32398;49.112;8.598;2023-05-23T14:03:01;21.30;67.20
46139;DHT22;32398;49.112;8.598;2023-05-23T14:05:28;21.30;67.70
46139;DHT22;32398;49.112;8.598;2023-05-23T14:07:54;21.30;67.70
46139;DHT22;32398;49.112;8.598;2023-05-23T14:10:21;21.30;67.90
46139;DHT22;32398;49.112;8.598;2023-05-23T14:12:47;21.30;67.70
46139;DHT22;32398;49.112;8.598;2023-05-23T14:15:15;21.40;67.60
46139;DHT22;32398;49.112;8.598;2023-05-23T14:17:43;21.40;67.80
46139;DHT22;32398;49.112;8.598;2023-05-23T14:20:10;21.40;67.50
46139;DHT22;32398;49.112;8.598;2023-05-23T14:22:36;21.40;67.40
46139;DHT22;32398;49.112;8.598;2023-05-23T14:25:03;21.40;67.80
46139;DHT22;32398;49.112;8.598;2023-05-23T14:27:31;21.40;67.50
46139;DHT22;32398;49.112;8.598;2023-05-23T14:29:57;21.40;67.40
46139;DHT22;32398;49.112;8.598;2023-05-23T14:32:24;21.40;67.60
46139;DHT22;32398;49.112;8.598;2023-05-23T14:34:52;21.40;67.60
46139;DHT22;32398;49.112;8.598;2023-05-23T14:37:19;21.40;67.50
46139;DHT22;32398;49.112;8.598;2023-05-23T14:39:46;21.50;67.40
46139;DHT22;32398;49.112;8.598;2023-05-23T14:42:12;21.50;66.90
46139;DHT22;32398;49.112;8.598;2023-05-23T14:44:39;21.50;66.90
46139;DHT22;32398;49.112;8.598;2023-05-23T14:47:05;21.50;68.10
46139;DHT22;32398;49.112;8.598;2023-05-23T14:49:32;21.50;67.40
46139;DHT22;32398;49.112;8.598;2023-05-23T14:52:00;21.50;67.00
46139;DHT22;32398;49.112;8.598;2023-05-23T14:54:26;21.60;67.10
46139;DHT22;32398;49.112;8.598;2023-05-23T14:56:53;21.50;67.10
46139;DHT22;32398;49.112;8.598;2023-05-23T14:59:21;21.60;67.00
46139;DHT22;32398;49.112;8.598;2023-05-23T15:01:47;21.50;66.60
46139;DHT22;32398;49.112;8.598;2023-05-23T15:04:14;21.60;66.40
46139;DHT22;32398;49.112;8.598;2023-05-23T15:06:40;21.70;63.20
46139;DHT22;32398;49.112;8.598;2023-05-23T15:09:08;21.90;61.80
46139;DHT22;32398;49.112;8.598;2023-05-23T15:11:36;22.00;61.90
46139;DHT22;32398;49.112;8.598;2023-05-23T15:14:02;22.10;62.20
46139;DHT22;32398;49.112;8.598;2023-05-23T15:16:29;22.20;62.20
46139;DHT22;32398;49.112;8.598;2023-05-23T15:18:57;22.30;62.10
46139;DHT22;32398;49.112;8.598;2023-05-23T15:21:24;22.40;62.00
46139;DHT22;32398;49.112;8.598;2023-05-23T15:23:50;22.50;61.80
46139;DHT22;32398;49.112;8.598;2023-05-23T15:26:18;22.60;61.40
46139;DHT22;32398;49.112;8.598;2023-05-23T15:28:45;22.70;61.20
46139;DHT22;32398;49.112;8.598;2023-05-23T15:31:11;22.80;61.10